Estación de Contra Coronel

Ultimos registro cada 15 minutos 37
Estación Fecha / Hora Temperatura Humedad Lluvia Velocidad Dirección Radiación Presion
37 Contra Coronel 07-05-2026 09:00 5,9 96,2 0 0,3 253 56,9 1021,2
36 Contra Coronel 07-05-2026 08:45 5,6 96,3 0 0 234 63,1 1021,3
35 Contra Coronel 07-05-2026 08:30 5,6 96,1 0 0 234 80,6 1021
34 Contra Coronel 07-05-2026 08:15 3,3 97,6 0 0 234 75,6 1021
33 Contra Coronel 07-05-2026 08:00 2,8 97,9 0 0 234 9,4 1020,9
32 Contra Coronel 07-05-2026 07:45 2,6 97,5 0 0 234 3,1 1020,7
31 Contra Coronel 07-05-2026 07:30 2,5 97 0 0 258 0,6 1020,5
30 Contra Coronel 07-05-2026 07:15 3,7 97 0 0 265 0,6 1020,6
29 Contra Coronel 07-05-2026 07:00 4 96,9 0 0 265 0,6 1020,6
28 Contra Coronel 07-05-2026 06:45 3,7 96,6 0 0 265 0,6 1020,5
27 Contra Coronel 07-05-2026 06:30 3 95,3 0 0 265 0,6 1020,3
26 Contra Coronel 07-05-2026 06:15 4 93,6 0 0 265 0,6 1020,3
25 Contra Coronel 07-05-2026 06:00 4,9 91,3 0 0,3 236 0,6 1020,4
24 Contra Coronel 07-05-2026 05:45 5,6 91,1 0 0 225 0,6 1020,4
23 Contra Coronel 07-05-2026 05:30 5,2 94,6 0 0,3 251 0,6 1020,6
22 Contra Coronel 07-05-2026 05:15 3,8 95,1 0 0 270 0,6 1020,3
21 Contra Coronel 07-05-2026 05:00 3,5 92,4 0 0 270 0,6 1019,9
20 Contra Coronel 07-05-2026 04:45 4,6 89,6 0 0 271 0,6 1019,9
19 Contra Coronel 07-05-2026 04:30 5,2 86,9 0 0 267 0,6 1019,8
18 Contra Coronel 07-05-2026 04:15 6,3 82 0 0,3 256 0,6 1019,8
17 Contra Coronel 07-05-2026 04:00 7 79,9 0 0,3 202 0,6 1019,4
16 Contra Coronel 07-05-2026 03:45 7,6 77,1 0 1 187 0,6 1019,3
15 Contra Coronel 07-05-2026 03:30 7,6 78,1 0 2,7 178 0,6 1019,3
14 Contra Coronel 07-05-2026 03:15 7,4 82,6 0 0,7 201 0,6 1019,5
13 Contra Coronel 07-05-2026 03:00 7,2 84,6 0 0,7 264 0,6 1019,3
12 Contra Coronel 07-05-2026 02:45 7,4 84,8 0 0,7 275 0,6 1019,1
11 Contra Coronel 07-05-2026 02:30 7,5 89,6 0 0,7 261 0,6 1019
10 Contra Coronel 07-05-2026 02:15 7,6 89,3 0 0,7 263 0,6 1018,7
9 Contra Coronel 07-05-2026 02:00 7,4 90,7 0 0,3 274 0,6 1018,4
8 Contra Coronel 07-05-2026 01:45 7,4 91 0 0 261 0,6 1018,2
7 Contra Coronel 07-05-2026 01:30 7,1 93,2 0 0,3 288 0,6 1018
6 Contra Coronel 07-05-2026 01:15 6,3 94 0 0 282 0,6 1017,9
5 Contra Coronel 07-05-2026 01:00 6,7 92,9 0 0,3 270 0,6 1017,7
4 Contra Coronel 07-05-2026 00:45 7,3 92,9 0 0,7 258 0,6 1017,8
3 Contra Coronel 07-05-2026 00:30 7,3 92,6 0 0,3 257 0,6 1017,7
2 Contra Coronel 07-05-2026 00:15 7,6 92,4 0 0 216 0,6 1017,5
1 Contra Coronel 07-05-2026 00:00 7,8 90,7 0 0,7 271 0,6 1017,4